Time;durP1;ratioP1;P1;durP2;ratioP2;P2;SDS_P1;SDS_P2;PMS_P1;PMS_P2;Temp;Humidity;BMP_temperature;BMP_pressure;BME280_temperature;BME280_humidity;BME280_pressure;Samples;Min_cycle;Max_cycle;Signal;HPM_P1;HPM_P2
2022/04/13 00:03:42;;;;;;;16.12;13.65;;;;;;;6.50;68.45;100563.38;2916913;79;21034;-83
2022/04/13 00:07:44;;;;;;;23.35;14.00;;;;;;;6.39;68.91;100560.89;2979948;77;20998;-83
2022/04/13 00:11:45;;;;;;;22.75;15.38;;;;;;;6.34;69.00;100553.72;2931126;79;21037;-83
2022/04/13 00:15:46;;;;;;;38.05;22.22;;;;;;;6.39;68.36;100556.94;2973192;79;21041;-83
2022/04/13 00:19:47;;;;;;;62.15;38.20;;;;;;;6.43;68.39;100559.77;2939302;79;20978;-82
2022/04/13 00:23:48;;;;;;;74.50;42.50;;;;;;;6.44;68.19;100547.41;2943026;79;21002;-83
2022/04/13 00:27:49;;;;;;;23.07;17.67;;;;;;;6.47;68.11;100542.39;2933448;79;21522;-83
2022/04/13 00:31:53;;;;;;;21.02;14.30;;;;;;;6.43;68.18;100549.68;2947798;78;21529;-83
2022/04/13 00:35:55;;;;;;;26.12;16.85;;;;;;;6.39;68.55;100546.36;2963342;77;21018;-82
2022/04/13 00:39:57;;;;;;;20.68;14.70;;;;;;;6.37;68.67;100550.89;2916202;77;20990;-83
2022/04/13 00:44:07;;;;;;;26.82;18.05;;;;;;;6.36;68.32;100550.97;2963571;78;21010;-82
2022/04/13 00:48:16;;;;;;;22.55;15.23;;;;;;;6.25;68.36;100555.13;2980722;78;21536;-84
2022/04/13 00:52:20;;;;;;;26.07;16.73;;;;;;;6.16;68.53;100554.33;2943972;79;21010;-83
2022/04/13 00:56:25;;;;;;;19.73;15.95;;;;;;;6.16;68.66;100554.33;2953190;79;22139;-83
2022/04/13 01:00:27;;;;;;;19.15;16.00;;;;;;;6.11;68.70;100557.27;2933077;79;21045;-83
2022/04/13 01:04:31;;;;;;;26.60;17.30;;;;;;;6.13;68.59;100556.70;2958788;79;21552;-83
2022/04/13 01:08:33;;;;;;;21.77;15.95;;;;;;;6.15;68.58;100551.31;2958280;78;21513;-82
2022/04/13 01:12:35;;;;;;;24.15;16.50;;;;;;;6.19;68.48;100553.31;2944084;79;21603;-82
2022/04/13 01:16:40;;;;;;;24.05;17.87;;;;;;;6.23;68.36;100553.05;2934196;79;21025;-83
2022/04/13 01:20:52;;;;;;;25.57;17.85;;;;;;;6.19;68.46;100545.38;2932432;78;20994;-83
2022/04/13 01:24:54;;;;;;;28.65;19.48;;;;;;;6.16;68.38;100545.09;2961670;78;21021;-82
2022/04/13 01:28:55;;;;;;;28.42;22.82;;;;;;;6.13;68.41;100542.63;2910386;79;20990;-83
2022/04/13 01:32:57;;;;;;;28.17;20.08;;;;;;;6.07;68.64;100539.88;2963555;78;21003;-82
2022/04/13 01:36:58;;;;;;;26.60;19.57;;;;;;;6.08;68.72;100546.86;2907468;80;21030;-82
2022/04/13 01:40:59;;;;;;;28.95;20.30;;;;;;;6.04;68.91;100541.38;2901052;80;20971;-82
2022/04/13 01:45:04;;;;;;;35.43;22.85;;;;;;;6.00;69.09;100546.44;2911536;78;21614;-82
2022/04/13 01:49:05;;;;;;;34.08;20.25;;;;;;;5.93;69.36;100542.47;2947250;78;20995;-82
2022/04/13 01:53:06;;;;;;;34.45;24.30;;;;;;;5.88;69.67;100536.13;2950676;78;21647;-83
2022/04/13 01:57:07;;;;;;;33.75;20.17;;;;;;;5.84;69.83;100530.16;2896419;80;21019;-83
2022/04/13 02:01:09;;;;;;;30.35;19.87;;;;;;;5.74;70.28;100529.02;2923903;78;21018;-83
2022/04/13 02:05:10;;;;;;;24.47;18.00;;;;;;;5.69;70.83;100538.96;2943815;78;20983;-83
2022/04/13 02:09:12;;;;;;;27.95;19.65;;;;;;;5.65;70.71;100529.52;2922987;79;21538;-83
2022/04/13 02:13:14;;;;;;;33.05;22.58;;;;;;;5.65;70.63;100530.84;2830671;82;21616;-83
2022/04/13 02:17:16;;;;;;;28.98;21.17;;;;;;;5.58;71.18;100530.34;2881464;80;22175;-84
2022/04/13 02:21:18;;;;;;;35.35;22.45;;;;;;;5.50;71.63;100529.48;2908949;80;21391;-83
2022/04/13 02:25:19;;;;;;;32.88;22.02;;;;;;;5.48;71.86;100539.25;2886992;80;21038;-84
2022/04/13 02:29:20;;;;;;;31.55;21.15;;;;;;;5.51;71.46;100540.42;2916373;80;21019;-83
2022/04/13 02:33:21;;;;;;;37.63;23.32;;;;;;;5.47;71.92;100540.67;2927428;79;21011;-83
2022/04/13 02:37:22;;;;;;;36.73;25.17;;;;;;;5.48;71.85;100553.77;2890236;80;21031;-83
2022/04/13 02:41:23;;;;;;;29.57;21.20;;;;;;;5.41;72.16;100551.09;2933017;78;20964;-83
2022/04/13 02:45:24;;;;;;;34.75;22.40;;;;;;;5.19;73.45;100553.61;2887164;80;21436;-83
2022/04/13 02:49:27;;;;;;;35.20;26.93;;;;;;;5.10;73.75;100558.05;2909054;80;21026;-83
2022/04/13 02:53:28;;;;;;;45.08;25.10;;;;;;;5.07;73.31;100563.05;2873590;80;21011;-82
2022/04/13 02:57:29;;;;;;;44.75;27.13;;;;;;;5.09;72.94;100560.31;2885925;80;21153;-83
2022/04/13 03:01:31;;;;;;;44.95;27.90;;;;;;;5.11;72.74;100559.75;2876702;80;21003;-82
2022/04/13 03:05:33;;;;;;;37.13;24.60;;;;;;;5.07;72.95;100566.14;2865956;80;21062;-82
2022/04/13 03:09:34;;;;;;;45.85;28.27;;;;;;;5.06;72.83;100565.30;2877461;80;21039;-82
2022/04/13 03:13:35;;;;;;;45.50;26.52;;;;;;;4.97;73.10;100565.33;2884949;80;21015;-82
2022/04/13 03:17:36;;;;;;;66.75;36.00;;;;;;;4.92;73.04;100568.69;2869634;80;21046;-82
2022/04/13 03:21:37;;;;;;;30.52;20.45;;;;;;;4.92;72.75;100573.09;2919041;80;21022;-81
2022/04/13 03:25:39;;;;;;;34.70;25.12;;;;;;;4.98;72.31;100567.03;2906101;80;21547;-81
2022/04/13 03:29:40;;;;;;;48.98;30.92;;;;;;;4.97;72.61;100571.05;2908505;80;21483;-81
2022/04/13 03:33:41;;;;;;;60.20;36.63;;;;;;;4.94;72.67;100564.18;2905054;80;21020;-81
2022/04/13 03:37:42;;;;;;;67.03;38.17;;;;;;;4.79;73.35;100566.31;2860211;82;21005;-81
2022/04/13 03:41:43;;;;;;;68.15;42.85;;;;;;;4.71;73.81;100566.23;2857216;79;21602;-81
2022/04/13 03:45:45;;;;;;;37.78;27.85;;;;;;;4.68;74.00;100566.41;2894554;80;21595;-81
2022/04/13 03:49:46;;;;;;;44.95;31.55;;;;;;;4.59;74.69;100574.80;2898535;81;21047;-81
2022/04/13 03:53:47;;;;;;;34.58;25.62;;;;;;;4.40;75.55;100568.30;2888978;80;21128;-80
2022/04/13 03:57:52;;;;;;;48.17;29.00;;;;;;;4.06;77.59;100572.19;2880161;81;21066;-80
2022/04/13 04:01:53;;;;;;;45.92;31.60;;;;;;;3.94;78.67;100578.09;2844306;81;21004;-80
2022/04/13 04:05:54;;;;;;;46.63;28.92;;;;;;;3.98;77.53;100573.05;2867165;79;21523;-81
2022/04/13 04:09:55;;;;;;;44.33;29.82;;;;;;;3.95;78.13;100572.73;2839210;81;21593;-80
2022/04/13 04:13:56;;;;;;;41.77;29.60;;;;;;;3.98;77.99;100579.63;2870412;81;21023;-81
2022/04/13 04:17:57;;;;;;;45.58;31.37;;;;;;;4.04;78.56;100584.59;2891070;81;21059;-80
2022/04/13 04:21:59;;;;;;;42.05;27.65;;;;;;;4.07;78.86;100586.23;2896229;81;21477;-80
2022/04/13 04:26:01;;;;;;;54.20;35.90;;;;;;;4.03;79.41;100585.52;2871472;81;21035;-80
2022/04/13 04:30:03;;;;;;;58.63;36.68;;;;;;;4.32;78.39;100591.08;2883591;81;21142;-80
2022/04/13 04:34:05;;;;;;;40.63;29.27;;;;;;;4.70;77.65;100589.56;2868418;81;21041;-86
2022/04/13 04:38:06;;;;;;;47.23;30.60;;;;;;;5.21;76.97;100584.70;2838518;81;21051;-82
2022/04/13 04:42:07;;;;;;;56.85;34.78;;;;;;;5.76;75.15;100592.26;2896198;81;21055;-80
2022/04/13 04:46:10;;;;;;;49.75;33.05;;;;;;;6.40;73.41;100585.55;2891425;81;21543;-80
2022/04/13 04:50:12;;;;;;;44.15;30.85;;;;;;;6.59;72.35;100598.98;2893561;80;21639;-80
2022/04/13 04:54:13;;;;;;;38.20;32.00;;;;;;;6.92;71.40;100598.71;2886060;80;21114;-81
2022/04/13 04:58:14;;;;;;;46.80;33.88;;;;;;;7.40;70.44;100598.38;2865393;79;21033;-80
2022/04/13 05:02:15;;;;;;;47.43;34.50;;;;;;;7.96;68.86;100592.16;2932362;79;21061;-80
2022/04/13 05:06:21;;;;;;;40.60;27.87;;;;;;;8.51;66.67;100591.23;2985866;78;21123;-80
2022/04/13 05:10:22;;;;;;;43.30;31.03;;;;;;;8.82;65.28;100594.39;2929419;78;21327;-80
2022/04/13 05:14:25;;;;;;;46.65;32.83;;;;;;;9.23;64.26;100596.42;2980853;77;21005;-80
2022/04/13 05:18:26;;;;;;;48.75;32.25;;;;;;;9.63;63.46;100599.32;2976699;78;21038;-81
2022/04/13 05:22:27;;;;;;;49.60;34.25;;;;;;;9.86;62.53;100603.81;2930011;79;21474;-81
2022/04/13 05:26:28;;;;;;;43.40;34.10;;;;;;;10.07;61.75;100595.20;2994854;78;21006;-80
2022/04/13 05:30:29;;;;;;;38.48;29.92;;;;;;;10.08;61.30;100595.57;2910887;78;21072;-81
2022/04/13 05:34:31;;;;;;;48.28;32.03;;;;;;;10.10;61.61;100596.30;2928839;79;21024;-80
2022/04/13 05:38:33;;;;;;;38.88;30.40;;;;;;;10.14;62.22;100594.27;2901633;79;21113;-80
2022/04/13 05:42:34;;;;;;;45.03;31.35;;;;;;;10.14;61.82;100599.09;2989239;77;20979;-80
2022/04/13 05:46:35;;;;;;;49.05;34.90;;;;;;;10.29;62.47;100601.06;3022206;77;21023;-80
2022/04/13 05:50:37;;;;;;;45.23;31.07;;;;;;;10.38;62.92;100604.84;3055117;77;21011;-80
2022/04/13 05:54:38;;;;;;;46.23;32.93;;;;;;;10.19;62.43;100611.17;2979971;77;21664;-81
2022/04/13 05:58:39;;;;;;;81.15;56.42;;;;;;;10.27;62.52;100616.78;2988847;77;21046;-80
2022/04/13 06:02:44;;;;;;;51.68;35.80;;;;;;;10.59;61.91;100608.17;3022269;77;20964;-81
2022/04/13 06:06:45;;;;;;;47.75;32.53;;;;;;;10.69;61.38;100614.97;3053346;77;21028;-81
2022/04/13 06:10:46;;;;;;;63.60;45.65;;;;;;;10.70;61.98;100616.19;3022381;76;20987;-81
2022/04/13 06:14:48;;;;;;;55.25;38.35;;;;;;;11.19;60.66;100617.29;3031777;77;21000;-80
2022/04/13 06:18:49;;;;;;;44.63;33.88;;;;;;;11.36;60.25;100621.77;3011862;76;20962;-81
2022/04/13 06:22:52;;;;;;;181.93;86.57;;;;;;;11.43;60.36;100620.32;2983480;77;21259;-81
2022/04/13 06:26:53;;;;;;;68.28;49.48;;;;;;;11.83;59.12;100625.08;3021798;76;21101;-81
2022/04/13 06:30:54;;;;;;;82.08;54.30;;;;;;;12.03;57.77;100617.29;3010128;77;21058;-81
2022/04/13 06:34:59;;;;;;;88.47;53.33;;;;;;;12.24;58.05;100614.63;2959612;77;21100;-81
2022/04/13 06:39:00;;;;;;;128.20;82.20;;;;;;;12.47;57.74;100616.34;2974863;78;21525;-81
2022/04/13 06:43:02;;;;;;;70.52;44.53;;;;;;;12.62;57.10;100617.72;2964394;79;21053;-80
2022/04/13 06:47:04;;;;;;;65.08;41.85;;;;;;;12.86;58.07;100622.75;2974982;78;21006;-81
2022/04/13 06:51:06;;;;;;;47.70;34.60;;;;;;;13.13;58.05;100621.82;2935244;77;20958;-80
2022/04/13 06:55:12;;;;;;;55.98;37.73;;;;;;;13.36;55.83;100626.96;2958896;78;21458;-81
2022/04/13 06:59:13;;;;;;;52.65;38.20;;;;;;;13.28;56.34;100627.16;2947813;78;21033;-81
2022/04/13 07:03:14;;;;;;;48.68;34.25;;;;;;;13.44;56.52;100628.52;3006868;78;22593;-81
2022/04/13 07:07:15;;;;;;;52.62;36.25;;;;;;;13.68;56.33;100637.98;3009839;78;20986;-81
2022/04/13 07:11:16;;;;;;;45.88;29.00;;;;;;;13.82;55.39;100634.92;2939884;79;21046;-81
2022/04/13 07:15:18;;;;;;;45.10;31.95;;;;;;;13.74;55.13;100628.07;2974048;78;21572;-81
2022/04/13 07:19:19;;;;;;;42.10;30.32;;;;;;;13.74;54.23;100637.42;2956791;78;21030;-81
2022/04/13 07:39:35;;;;;;;45.88;33.05;;;;;;;14.74;52.53;100633.77;2987942;78;22750;-79
2022/04/13 07:43:36;;;;;;;37.10;28.55;;;;;;;14.90;52.12;100646.06;2930498;79;21055;-79
2022/04/13 07:47:39;;;;;;;44.65;32.80;;;;;;;15.10;52.43;100640.64;2927075;79;21010;-80
2022/04/13 07:51:40;;;;;;;41.98;30.25;;;;;;;15.34;53.20;100641.98;2931059;79;21053;-80
2022/04/13 07:55:42;;;;;;;38.02;27.67;;;;;;;15.55;52.94;100633.67;2930019;79;21081;-80
2022/04/13 07:59:44;;;;;;;36.98;27.02;;;;;;;15.77;53.55;100638.27;2929138;79;21013;-80
2022/04/13 08:03:45;;;;;;;33.70;25.52;;;;;;;15.92;51.55;100639.47;2932339;79;21038;-79
2022/04/13 08:22:14;;;;;;;32.05;23.80;;;;;;;16.77;50.66;100613.95;3067941;75;22248;-80
2022/04/13 08:26:15;;;;;;;34.00;24.65;;;;;;;16.90;50.82;100620.77;3009057;78;21034;-81
2022/04/13 08:30:17;;;;;;;29.87;23.30;;;;;;;16.75;50.66;100612.45;2980682;77;21016;-80
2022/04/13 08:34:18;;;;;;;31.02;23.98;;;;;;;16.83;50.84;100617.86;3014321;78;20981;-80
2022/04/13 08:38:20;;;;;;;37.30;25.10;;;;;;;16.74;50.60;100620.17;3014617;78;21396;-80
2022/04/13 08:42:58;;;;;;;35.17;24.47;;;;;;;16.69;51.68;100619.30;3039470;77;21027;-80
2022/04/13 08:47:05;;;;;;;35.43;23.95;;;;;;;16.79;51.83;100616.50;3014497;77;21050;-80
2022/04/13 08:51:11;;;;;;;30.10;23.02;;;;;;;16.91;50.95;100618.41;3047511;77;21030;-80
2022/04/13 08:55:16;;;;;;;;;;;;;;;17.01;50.96;100608.92;2952936;78;21023;-80
2022/04/13 09:00:02;;;;;;;30.17;23.30;;;;;;;17.25;51.18;100610.89;2949752;80;20103;-80
2022/04/13 09:04:10;;;;;;;29.95;21.73;;;;;;;17.40;50.72;100607.08;2899956;80;21062;-80
2022/04/13 09:08:37;;;;;;;27.75;18.95;;;;;;;17.54;50.73;100603.77;2915426;80;21040;-80
2022/04/13 09:12:39;;;;;;;29.72;20.10;;;;;;;17.77;48.03;100596.41;2962939;78;21046;-80
2022/04/13 09:16:43;;;;;;;28.80;19.52;;;;;;;17.83;48.46;100606.50;2952052;80;21593;-80
2022/04/13 09:20:44;;;;;;;29.90;22.93;;;;;;;17.72;48.81;100606.84;2956086;79;21097;-80
2022/04/13 09:24:47;;;;;;;25.85;19.17;;;;;;;17.84;48.93;100593.91;2954992;78;21038;-80
2022/04/13 09:28:49;;;;;;;33.35;23.15;;;;;;;17.95;49.73;100599.47;2999712;78;20990;-80
2022/04/13 09:32:51;;;;;;;31.93;24.20;;;;;;;18.07;49.47;100604.05;2972175;78;20983;-80
2022/04/13 09:36:55;;;;;;;26.77;20.68;;;;;;;18.05;48.89;100604.20;2991269;78;21042;-80
2022/04/13 09:41:09;;;;;;;30.90;18.57;;;;;;;18.01;48.36;100598.79;2960640;78;20986;-80
2022/04/13 09:45:11;;;;;;;28.27;23.20;;;;;;;18.03;48.38;100604.88;2937368;79;21070;-80
2022/04/13 09:49:18;;;;;;;35.20;23.12;;;;;;;18.02;48.91;100599.16;2985690;78;21050;-80
2022/04/13 09:53:21;;;;;;;27.55;21.00;;;;;;;18.10;49.15;100595.63;2974408;78;21073;-80
2022/04/13 09:57:24;;;;;;;29.35;22.45;;;;;;;18.20;49.67;100599.50;2995402;78;20959;-80
2022/04/13 10:01:25;;;;;;;29.18;21.82;;;;;;;18.19;49.07;100589.25;2919225;80;21053;-81
2022/04/13 10:05:30;;;;;;;26.35;21.73;;;;;;;18.33;49.60;100586.87;2931760;80;21016;-80
2022/04/13 10:09:32;;;;;;;29.03;21.47;;;;;;;18.36;48.58;100586.03;2955353;79;21025;-80
2022/04/13 10:13:40;;;;;;;33.67;24.05;;;;;;;18.55;49.47;100575.91;2991915;78;21033;-80
2022/04/13 10:17:42;;;;;;;23.45;17.85;;;;;;;18.73;50.34;100581.59;2973271;78;21037;-80
2022/04/13 10:21:51;;;;;;;31.65;21.02;;;;;;;18.82;47.39;100576.50;2991799;78;21087;-80
2022/04/13 10:25:59;;;;;;;29.30;22.40;;;;;;;18.95;48.78;100584.89;2954405;80;20999;-80
2022/04/13 10:30:09;;;;;;;25.68;21.02;;;;;;;18.96;48.67;100584.38;2900318;80;21041;-80
2022/04/13 10:34:11;;;;;;;26.85;19.37;;;;;;;19.09;48.85;100587.39;2944250;79;21112;-80
2022/04/13 10:38:13;;;;;;;33.58;24.23;;;;;;;19.12;48.52;100583.52;2936608;79;21022;-80
2022/04/13 10:42:17;;;;;;;27.58;19.62;;;;;;;19.03;48.61;100585.90;2926642;80;21054;-80
2022/04/13 10:46:20;;;;;;;32.42;22.13;;;;;;;18.99;48.58;100577.34;2924019;81;21109;-80
2022/04/13 10:50:48;;;;;;;29.90;20.55;;;;;;;19.03;48.98;100576.47;2925345;79;21015;-80
2022/04/13 10:54:54;;;;;;;35.05;21.57;;;;;;;19.11;48.19;100573.75;2904007;81;20997;-80
2022/04/13 10:59:19;;;;;;;;;;;;;;;19.17;47.71;100574.39;2883983;82;21010;-80
2022/04/13 11:03:25;;;;;;;27.65;20.40;;;;;;;19.40;49.53;100573.59;2873849;82;20522;-80
2022/04/13 11:07:27;;;;;;;29.05;19.87;;;;;;;19.51;48.78;100565.61;2884758;81;21045;-80
2022/04/13 11:11:31;;;;;;;33.05;19.65;;;;;;;19.58;47.55;100564.39;2884404;81;21041;-80
2022/04/13 11:15:43;;;;;;;43.15;30.32;;;;;;;19.80;47.41;100555.98;2850884;82;21050;-80
2022/04/13 11:19:44;;;;;;;37.65;26.12;;;;;;;19.91;47.17;100560.13;2858302;82;21086;-80
2022/04/13 11:23:54;;;;;;;32.65;23.25;;;;;;;20.04;45.88;100560.36;2854998;83;21499;-81
2022/04/13 11:27:57;;;;;;;25.90;19.27;;;;;;;20.07;45.98;100561.38;2894241;80;21420;-80
2022/04/13 11:32:10;;;;;;;25.05;17.90;;;;;;;20.05;44.88;100552.63;2860885;81;21050;-81
2022/04/13 11:36:11;;;;;;;28.98;20.92;;;;;;;20.09;43.94;100560.68;2857806;83;21067;-80
2022/04/13 11:40:18;;;;;;;27.55;17.75;;;;;;;20.14;44.69;100556.59;2858960;83;20994;-80
2022/04/13 11:44:21;;;;;;;24.85;18.73;;;;;;;20.15;44.78;100559.61;2857964;81;21023;-80
2022/04/13 11:48:34;;;;;;;26.70;18.23;;;;;;;20.21;43.44;100558.38;2853635;82;21070;-80
2022/04/13 11:52:48;;;;;;;22.00;14.78;;;;;;;20.11;43.37;100557.28;2864708;81;20971;-80
2022/04/13 11:56:54;;;;;;;16.87;12.82;;;;;;;19.83;44.53;100564.55;2861406;82;21090;-80
2022/04/13 12:01:08;;;;;;;23.00;16.60;;;;;;;20.05;44.80;100559.37;2867110;82;21018;-80
2022/04/13 12:05:14;;;;;;;26.60;16.02;;;;;;;20.15;45.08;100548.81;2866234;82;21034;-80
2022/04/13 12:09:15;;;;;;;20.32;15.88;;;;;;;20.22;44.75;100550.60;2854668;83;21075;-80
2022/04/13 12:13:17;;;;;;;22.20;15.72;;;;;;;20.24;43.99;100551.75;2860529;83;21477;-81
2022/04/13 12:17:21;;;;;;;22.22;16.27;;;;;;;20.25;43.89;100549.41;2879300;81;21462;-80
2022/04/13 12:21:24;;;;;;;22.32;15.13;;;;;;;20.33;44.21;100543.06;2849272;82;21530;-80
2022/04/13 12:25:25;;;;;;;26.97;18.23;;;;;;;20.49;45.00;100543.42;2855511;82;21620;-80
2022/04/13 12:29:29;;;;;;;27.60;16.17;;;;;;;20.52;43.96;100543.05;2835009;82;21204;-81
2022/04/13 12:33:31;;;;;;;19.40;14.15;;;;;;;20.62;42.79;100541.42;2829484;82;21057;-80
2022/04/13 12:37:32;;;;;;;26.52;17.55;;;;;;;20.65;44.61;100535.14;2833908;82;21062;-80
2022/04/13 12:41:34;;;;;;;20.72;17.02;;;;;;;20.82;42.32;100532.25;2851187;81;21093;-80
2022/04/13 12:45:35;;;;;;;25.57;18.98;;;;;;;20.93;42.76;100529.09;2835445;82;21032;-80
2022/04/13 12:49:37;;;;;;;25.00;17.70;;;;;;;20.95;42.04;100522.98;2831196;82;21022;-81
2022/04/13 12:53:46;;;;;;;22.22;15.60;;;;;;;21.03;42.92;100514.42;2830551;82;21046;-81
2022/04/13 12:57:47;;;;;;;21.37;14.00;;;;;;;21.05;43.37;100515.09;2834490;82;21046;-81
2022/04/13 13:01:54;;;;;;;19.87;17.02;;;;;;;21.09;43.33;100508.28;2832258;82;21062;-81
2022/04/13 13:06:01;;;;;;;26.90;17.10;;;;;;;21.11;42.62;100500.80;2834799;81;21032;-80
2022/04/13 13:10:02;;;;;;;27.05;17.07;;;;;;;21.15;42.44;100503.98;2850668;82;21026;-80
2022/04/13 13:14:13;;;;;;;22.07;15.53;;;;;;;21.18;42.97;100503.06;2832094;82;21026;-80
2022/04/13 13:18:18;;;;;;;28.00;15.58;;;;;;;21.25;41.57;100497.23;2841585;81;21063;-83
2022/04/13 13:22:25;;;;;;;23.38;16.73;;;;;;;21.27;41.96;100498.37;2855223;81;21069;-81
2022/04/13 13:26:26;;;;;;;22.73;14.07;;;;;;;21.34;42.29;100484.42;2856972;81;21069;-84
2022/04/13 13:30:39;;;;;;;23.20;14.80;;;;;;;21.25;42.28;100483.70;2872992;81;21045;-82
2022/04/13 13:34:56;;;;;;;20.30;15.15;;;;;;;21.25;42.41;100478.80;2864399;82;21026;-81
2022/04/13 13:38:57;;;;;;;22.58;15.48;;;;;;;21.32;43.81;100479.72;2857953;82;21064;-81
2022/04/13 13:43:01;;;;;;;20.85;14.40;;;;;;;21.27;42.03;100472.67;2872679;81;21093;-81
2022/04/13 13:47:05;;;;;;;24.07;16.00;;;;;;;21.38;41.92;100467.27;2869150;81;21018;-80
2022/04/13 13:51:08;;;;;;;21.12;13.25;;;;;;;21.42;41.44;100468.58;2907884;81;21108;-80
2022/04/13 13:55:10;;;;;;;23.27;14.15;;;;;;;21.43;43.65;100458.08;2849852;81;21035;-81
2022/04/13 13:59:11;;;;;;;23.83;14.90;;;;;;;21.46;42.59;100454.13;2890768;81;20971;-81
2022/04/13 14:03:15;;;;;;;18.52;13.93;;;;;;;21.44;41.83;100452.14;2890412;80;21022;-81
2022/04/13 14:07:18;;;;;;;20.43;13.38;;;;;;;21.51;42.68;100449.81;2886186;81;21038;-81
2022/04/13 14:11:19;;;;;;;21.55;14.55;;;;;;;21.57;41.47;100452.77;2884540;80;21006;-81
2022/04/13 14:15:21;;;;;;;17.95;13.50;;;;;;;21.53;41.50;100453.70;2911312;81;21047;-81
2022/04/13 14:19:22;;;;;;;16.40;12.10;;;;;;;21.54;41.41;100454.84;2915015;80;21049;-81
2022/04/13 14:23:24;;;;;;;23.50;12.95;;;;;;;21.61;42.49;100457.61;2862672;81;21030;-81
2022/04/13 14:27:25;;;;;;;21.55;12.88;;;;;;;21.69;42.87;100455.31;2855968;82;21020;-81
2022/04/13 14:31:27;;;;;;;22.07;12.10;;;;;;;21.79;43.29;100453.09;2861870;82;21664;-80
2022/04/13 14:35:28;;;;;;;24.05;12.43;;;;;;;21.79;41.81;100454.44;2853379;81;21506;-81
2022/04/13 14:39:30;;;;;;;20.43;15.28;;;;;;;21.72;41.36;100445.45;2861377;81;20967;-81
2022/04/13 14:43:31;;;;;;;25.62;15.18;;;;;;;21.71;42.19;100448.33;2864452;82;21030;-81
2022/04/13 14:47:33;;;;;;;19.00;14.43;;;;;;;21.63;41.67;100460.13;2861024;80;21005;-81
2022/04/13 14:51:34;;;;;;;21.30;12.15;;;;;;;21.60;42.12;100453.23;2863201;81;21066;-82
2022/04/13 14:55:36;;;;;;;21.73;15.15;;;;;;;21.57;43.39;100448.71;2860403;81;21078;-82
2022/04/13 14:59:38;;;;;;;21.57;13.43;;;;;;;21.59;42.84;100446.64;2859315;82;20995;-83
2022/04/13 15:03:39;;;;;;;19.37;13.95;;;;;;;21.46;42.14;100441.45;2860035;82;21014;-83
2022/04/13 15:07:42;;;;;;;23.83;14.25;;;;;;;21.45;43.81;100437.08;2847715;81;21014;-84
2022/04/13 15:11:43;;;;;;;22.15;14.18;;;;;;;21.39;43.52;100436.47;2859793;81;21062;-83
2022/04/13 15:15:45;;;;;;;19.00;13.90;;;;;;;21.38;44.11;100442.92;2845164;82;21025;-84
2022/04/13 15:19:46;;;;;;;22.77;15.15;;;;;;;21.36;43.82;100438.22;2842405;82;21039;-84
2022/04/13 15:23:47;;;;;;;28.80;14.55;;;;;;;21.31;43.91;100429.33;2851851;82;21082;-84
2022/04/13 15:27:49;;;;;;;22.93;14.68;;;;;;;21.26;43.69;100429.92;2866211;81;21049;-84
2022/04/13 15:31:50;;;;;;;21.25;13.72;;;;;;;21.23;44.23;100432.17;2961138;78;20973;-84
2022/04/13 15:35:51;;;;;;;23.65;16.30;;;;;;;21.18;44.61;100436.80;2984368;78;21474;-84
2022/04/13 15:39:54;;;;;;;24.23;16.42;;;;;;;21.14;43.95;100430.10;2985946;78;21427;-84
2022/04/13 15:43:57;;;;;;;22.20;15.25;;;;;;;21.17;43.35;100435.12;2958887;78;21029;-84
2022/04/13 15:47:59;;;;;;;25.30;14.78;;;;;;;21.13;44.85;100433.84;2973654;78;21014;-83
2022/04/13 15:52:00;;;;;;;21.37;14.28;;;;;;;21.15;45.98;100426.37;2959874;78;21049;-84
2022/04/13 15:56:05;;;;;;;20.05;12.75;;;;;;;21.08;45.02;100424.12;2963871;78;21706;-84
2022/04/13 16:00:08;;;;;;;32.15;16.17;;;;;;;21.00;44.78;100422.87;2965807;79;21139;-84
2022/04/13 16:04:09;;;;;;;20.43;13.45;;;;;;;20.92;46.09;100426.02;2978882;78;21030;-84
2022/04/13 16:08:14;;;;;;;20.35;13.40;;;;;;;20.84;45.48;100427.50;2959295;78;21045;-84
2022/04/13 16:12:15;;;;;;;19.45;13.38;;;;;;;20.73;45.51;100428.77;2973586;78;21021;-83
2022/04/13 16:16:16;;;;;;;17.10;11.93;;;;;;;20.67;45.13;100429.54;2953124;78;21064;-83
2022/04/13 16:20:22;;;;;;;17.48;13.25;;;;;;;20.55;45.79;100440.84;2969590;78;21064;-83
2022/04/13 16:24:23;;;;;;;19.45;12.88;;;;;;;20.44;45.65;100436.41;2901080;78;21058;-82
2022/04/13 16:28:26;;;;;;;18.82;12.30;;;;;;;20.30;46.44;100436.25;2910170;80;20999;-82
2022/04/13 16:32:29;;;;;;;20.35;12.43;;;;;;;20.15;47.59;100435.40;2907223;80;21086;-82
2022/04/13 16:36:30;;;;;;;16.12;11.48;;;;;;;20.02;47.35;100439.56;2902593;81;20987;-82
2022/04/13 16:40:32;;;;;;;16.00;11.45;;;;;;;19.83;46.96;100437.69;2902176;80;21157;-82
2022/04/13 16:44:34;;;;;;;13.32;10.15;;;;;;;19.70;47.01;100436.14;2883951;80;21059;-82
2022/04/13 16:48:35;;;;;;;16.40;10.95;;;;;;;19.59;47.52;100434.72;2923843;80;21060;-81
2022/04/13 16:52:37;;;;;;;16.40;12.50;;;;;;;19.51;47.63;100436.97;2900589;80;21030;-82
2022/04/13 16:56:39;;;;;;;13.62;10.65;;;;;;;19.43;47.26;100437.55;2910993;80;21016;-82
2022/04/13 17:00:40;;;;;;;15.88;10.53;;;;;;;19.30;47.40;100440.33;2912862;80;21014;-82
2022/04/13 17:04:42;;;;;;;12.93;9.23;;;;;;;19.14;47.55;100437.24;2908170;80;21053;-82
2022/04/13 17:08:45;;;;;;;17.05;11.30;;;;;;;19.02;47.51;100438.16;2906234;80;21062;-83
2022/04/13 17:12:46;;;;;;;15.38;10.78;;;;;;;18.80;47.47;100438.41;2881748;81;20995;-83
2022/04/13 17:16:47;;;;;;;18.10;10.90;;;;;;;18.69;47.73;100443.69;2907265;81;20979;-83
2022/04/13 17:20:50;;;;;;;13.43;10.85;;;;;;;18.53;47.81;100442.73;2892169;80;21023;-87
2022/04/13 17:24:52;;;;;;;10.35;8.83;;;;;;;18.35;48.00;100448.36;3015699;78;21013;-82
2022/04/13 17:28:54;;;;;;;15.30;10.55;;;;;;;18.12;48.44;100445.06;3002267;78;21096;-86
2022/04/13 17:32:55;;;;;;;15.43;10.95;;;;;;;17.90;48.77;100439.02;3026118;78;21017;-82
2022/04/13 17:36:58;;;;;;;23.45;16.30;;;;;;;17.69;49.25;100443.08;3003876;78;21005;-82
2022/04/13 17:40:59;;;;;;;60.67;41.30;;;;;;;17.51;49.78;100441.39;2976440;78;21032;-82
2022/04/13 17:45:01;;;;;;;101.55;49.90;;;;;;;17.25;50.55;100438.33;3009134;78;20974;-81
2022/04/13 17:49:02;;;;;;;82.90;51.30;;;;;;;17.06;51.06;100440.83;2968464;78;21104;-81
2022/04/13 17:53:04;;;;;;;63.13;38.73;;;;;;;16.87;51.52;100449.14;2976524;78;21413;-81
2022/04/13 17:57:05;;;;;;;46.65;29.05;;;;;;;16.67;52.13;100452.92;3003679;78;21478;-82
2022/04/13 18:01:07;;;;;;;45.50;28.07;;;;;;;16.55;52.18;100451.03;3020405;78;21006;-82
2022/04/13 18:05:09;;;;;;;43.02;27.22;;;;;;;16.38;52.66;100448.78;2977480;78;21057;-82
2022/04/13 18:09:12;;;;;;;49.18;31.75;;;;;;;16.22;53.23;100452.71;2997846;78;21085;-82
2022/04/13 18:13:14;;;;;;;69.75;41.88;;;;;;;16.07;53.58;100455.14;2975186;79;21018;-83
2022/04/13 18:17:16;;;;;;;87.25;52.98;;;;;;;15.92;54.14;100454.88;2964937;79;20997;-83
2022/04/13 18:21:17;;;;;;;105.03;60.73;;;;;;;15.79;54.52;100449.87;2968666;79;21491;-82
2022/04/13 18:25:18;;;;;;;76.97;45.50;;;;;;;15.64;55.03;100457.64;2958558;80;21085;-82
2022/04/13 18:29:19;;;;;;;82.78;46.58;;;;;;;15.49;55.53;100460.86;2959561;80;21049;-81
2022/04/13 18:33:21;;;;;;;85.85;55.67;;;;;;;15.33;56.42;100467.40;2967143;80;21023;-82
2022/04/13 18:37:22;;;;;;;78.20;46.75;;;;;;;15.08;57.69;100473.38;2968095;78;21552;-82
2022/04/13 18:41:25;;;;;;;67.58;38.92;;;;;;;14.67;58.96;100483.06;2863841;81;21083;-82
2022/04/13 18:45:26;;;;;;;31.17;20.50;;;;;;;14.43;59.98;100484.42;2856641;82;21089;-82
2022/04/13 18:49:28;;;;;;;33.75;18.50;;;;;;;14.22;60.75;100487.30;2914489;80;21021;-82
2022/04/13 18:53:29;;;;;;;47.85;23.25;;;;;;;14.05;61.50;100489.37;2914590;81;20987;-82
2022/04/13 18:57:31;;;;;;;44.27;23.20;;;;;;;13.84;62.45;100485.04;2914882;80;21002;-82
2022/04/13 19:01:32;;;;;;;42.95;27.52;;;;;;;13.78;62.58;100490.48;2914464;81;21041;-82